Time;durP1;ratioP1;P1;durP2;ratioP2;P2;SDS_P1;SDS_P2;PMS_P1;PMS_P2;Temp;Humidity;BMP_temperature;BMP_pressure;BME280_temperature;BME280_humidity;BME280_pressure;Samples;Min_cycle;Max_cycle;Signal;HPM_P1;HPM_P2
2023/08/01 00:01:02;;;;;;;4.50;3.22;;;;;;;16.91;85.97;97338.03;5025631;28;20465;-82
2023/08/01 00:03:28;;;;;;;6.00;3.47;;;;;;;16.77;85.99;97313.25;5024165;28;20173;-82
2023/08/01 00:05:54;;;;;;;5.28;3.60;;;;;;;16.81;86.84;97341.13;5028117;28;20467;-82
2023/08/01 00:08:21;;;;;;;4.05;3.22;;;;;;;16.91;86.73;97327.25;5028943;28;20068;-82
2023/08/01 00:10:46;;;;;;;7.65;3.25;;;;;;;16.90;86.11;97323.00;5028055;28;20060;-82
2023/08/01 00:13:11;;;;;;;4.28;3.17;;;;;;;16.91;85.57;97303.00;5026270;28;20037;-83
2023/08/01 00:15:37;;;;;;;5.85;3.30;;;;;;;17.06;84.79;97302.44;5027732;28;20037;-82
2023/08/01 00:18:02;;;;;;;5.07;3.45;;;;;;;17.03;85.46;97303.09;5027179;28;20444;-82
2023/08/01 00:20:28;;;;;;;3.67;3.10;;;;;;;16.91;85.78;97292.22;5028556;28;20029;-82
2023/08/01 00:22:53;;;;;;;6.55;3.50;;;;;;;16.92;85.93;97283.03;5024754;28;20033;-82
2023/08/01 00:25:18;;;;;;;4.40;2.85;;;;;;;16.94;85.41;97280.81;5009579;28;20033;-83
2023/08/01 00:27:44;;;;;;;4.28;3.00;;;;;;;16.99;85.66;97277.94;5027244;28;20064;-82
2023/08/01 00:30:10;;;;;;;4.28;3.08;;;;;;;16.84;86.39;97270.41;5039840;28;20029;-82
2023/08/01 00:32:36;;;;;;;7.30;3.08;;;;;;;16.75;86.07;97251.63;5026733;28;20116;-82
2023/08/01 00:35:02;;;;;;;3.60;2.72;;;;;;;16.84;86.06;97265.03;5025797;28;20652;-82
2023/08/01 00:37:28;;;;;;;3.47;2.90;;;;;;;16.86;86.13;97250.09;5028457;28;20025;-82
2023/08/01 00:39:53;;;;;;;10.27;3.30;;;;;;;16.91;85.99;97254.50;5027157;28;20032;-82
2023/08/01 00:42:18;;;;;;;5.25;2.88;;;;;;;16.85;85.80;97253.13;5010259;28;20381;-82
2023/08/01 00:44:44;;;;;;;3.45;2.60;;;;;;;16.90;85.74;97244.84;5024108;28;20383;-82
2023/08/01 00:47:10;;;;;;;6.30;2.72;;;;;;;16.86;86.12;97235.84;5009961;28;20053;-82
2023/08/01 00:49:35;;;;;;;4.45;2.38;;;;;;;16.97;85.79;97237.81;5026863;28;20548;-82
2023/08/01 00:52:01;;;;;;;2.70;2.30;;;;;;;16.98;85.49;97225.13;5024357;28;20169;-83
2023/08/01 00:54:27;;;;;;;3.10;2.63;;;;;;;16.83;86.05;97223.00;5028091;28;20034;-82
2023/08/01 00:56:53;;;;;;;4.50;2.88;;;;;;;16.96;85.52;97221.97;5041290;28;20079;-82
2023/08/01 00:59:19;;;;;;;3.55;2.40;;;;;;;16.89;85.98;97219.00;5026708;28;20029;-82
2023/08/01 01:01:44;;;;;;;3.58;2.47;;;;;;;16.98;86.02;97233.22;4993037;28;20034;-82
2023/08/01 01:04:09;;;;;;;2.90;2.50;;;;;;;16.93;85.70;97219.91;5012420;28;20033;-82
2023/08/01 01:06:43;;;;;;;3.58;2.30;;;;;;;16.86;86.36;97225.84;5028653;28;20040;-82
2023/08/01 01:09:19;;;;;;;4.32;2.60;;;;;;;16.86;86.60;97206.19;5026812;28;20042;-82
2023/08/01 01:11:45;;;;;;;3.72;2.60;;;;;;;16.85;86.60;97205.41;5029250;28;20041;-81
2023/08/01 01:14:10;;;;;;;3.42;2.10;;;;;;;16.91;86.11;97196.00;5019592;28;20029;-81
2023/08/01 01:16:36;;;;;;;3.42;2.08;;;;;;;16.84;85.78;97184.19;5030113;28;20048;-81
2023/08/01 01:19:02;;;;;;;5.45;2.25;;;;;;;16.74;86.63;97179.97;5029398;28;20025;-81
2023/08/01 01:21:27;;;;;;;3.80;1.90;;;;;;;16.78;86.71;97191.66;5024759;28;20190;-81
2023/08/01 01:23:54;;;;;;;2.30;2.00;;;;;;;16.77;87.06;97173.13;5010888;28;20108;-81
2023/08/01 01:26:21;;;;;;;4.55;2.33;;;;;;;16.46;88.56;97144.66;5028492;28;20509;-81
2023/08/01 01:28:51;;;;;;;4.22;2.08;;;;;;;16.79;87.69;97152.03;5010072;28;20067;-80
2023/08/01 01:31:17;;;;;;;5.10;2.45;;;;;;;16.59;87.75;97123.19;5026671;28;20124;-81
2023/08/01 01:33:43;;;;;;;3.22;2.25;;;;;;;16.72;88.13;97132.91;5026338;28;20029;-81
2023/08/01 01:36:08;;;;;;;2.92;1.92;;;;;;;16.77;87.16;97138.91;5030108;28;20034;-81
2023/08/01 01:38:33;;;;;;;2.17;1.98;;;;;;;16.65;87.75;97130.75;5014251;28;20026;-81
2023/08/01 01:40:59;;;;;;;2.03;1.73;;;;;;;16.68;87.72;97126.59;5032104;28;20071;-80
2023/08/01 01:43:24;;;;;;;3.97;2.08;;;;;;;16.67;87.66;97141.97;5030561;28;20087;-80
2023/08/01 01:45:49;;;;;;;2.47;2.28;;;;;;;16.75;87.87;97167.28;5016340;28;20060;-81
2023/08/01 01:48:15;;;;;;;5.30;1.85;;;;;;;16.62;88.65;97160.25;5013247;28;20057;-81
2023/08/01 01:50:40;;;;;;;1.67;1.58;;;;;;;16.66;88.74;97158.47;5032471;28;20477;-81
2023/08/01 01:53:05;;;;;;;2.15;1.90;;;;;;;16.54;88.93;97159.19;5030960;28;20033;-81
2023/08/01 01:55:31;;;;;;;2.45;1.85;;;;;;;16.48;89.21;97147.00;5011610;28;20121;-81
2023/08/01 01:57:56;;;;;;;4.70;2.28;;;;;;;16.62;89.07;97154.88;5030833;28;20059;-81
2023/08/01 02:00:21;;;;;;;1.92;1.67;;;;;;;16.64;88.75;97161.50;5029173;28;20057;-81
2023/08/01 02:02:47;;;;;;;1.75;1.55;;;;;;;16.63;89.18;97145.66;5030204;28;20153;-81
2023/08/01 02:05:12;;;;;;;3.53;2.00;;;;;;;16.64;88.94;97158.81;5012381;28;20044;-81
2023/08/01 02:07:38;;;;;;;1.95;1.70;;;;;;;16.60;88.88;97157.09;5029467;28;20029;-81
2023/08/01 02:10:03;;;;;;;1.95;1.85;;;;;;;16.60;89.78;97151.72;5026712;28;20052;-81
2023/08/01 02:12:31;;;;;;;3.70;1.48;;;;;;;16.53;89.46;97130.69;5012850;28;20030;-81
2023/08/01 02:14:58;;;;;;;3.53;1.70;;;;;;;16.70;88.88;97141.34;5011799;28;20034;-81
2023/08/01 02:17:23;;;;;;;2.88;1.83;;;;;;;16.68;88.86;97153.56;5026952;28;20030;-81
2023/08/01 02:19:49;;;;;;;2.22;1.70;;;;;;;16.62;88.61;97136.00;5027539;28;20490;-81
2023/08/01 02:22:14;;;;;;;2.13;1.52;;;;;;;16.57;88.93;97128.91;5030121;28;20608;-81
2023/08/01 02:24:40;;;;;;;3.28;1.88;;;;;;;16.62;89.58;97139.47;5029935;28;20037;-81
2023/08/01 02:27:05;;;;;;;2.55;1.73;;;;;;;16.57;89.20;97115.44;5031356;28;20037;-81
2023/08/01 02:29:30;;;;;;;2.45;1.83;;;;;;;16.67;88.95;97111.53;5028341;28;20097;-81
2023/08/01 02:31:56;;;;;;;2.85;1.77;;;;;;;16.69;88.99;97110.09;5031717;28;20079;-81
2023/08/01 02:34:21;;;;;;;4.57;1.90;;;;;;;16.66;89.00;97094.63;5024722;28;20030;-81
2023/08/01 02:36:47;;;;;;;2.72;1.67;;;;;;;16.63;89.18;97070.22;5029884;28;20038;-81
2023/08/01 02:39:12;;;;;;;1.58;1.45;;;;;;;16.44;89.83;97049.13;4997012;28;20036;-81
2023/08/01 02:41:37;;;;;;;3.33;1.60;;;;;;;16.66;89.10;97086.53;5031186;28;20022;-81
2023/08/01 02:44:03;;;;;;;2.78;1.75;;;;;;;16.62;89.07;97074.06;5030540;28;20038;-81
2023/08/01 02:46:29;;;;;;;2.83;1.80;;;;;;;16.69;89.00;97061.63;5028715;28;20040;-81
2023/08/01 02:48:55;;;;;;;1.63;1.52;;;;;;;16.70;88.41;97054.31;5030300;28;20416;-81
2023/08/01 02:51:20;;;;;;;2.70;1.27;;;;;;;16.55;89.00;97041.47;5027819;28;20033;-81
2023/08/01 02:53:45;;;;;;;2.92;1.33;;;;;;;16.63;88.60;97038.69;5030949;28;20473;-81
2023/08/01 02:56:11;;;;;;;2.78;1.60;;;;;;;16.61;88.59;97030.16;5012948;28;20079;-82
2023/08/01 02:58:36;;;;;;;1.90;1.50;;;;;;;16.63;88.85;97033.31;5027530;28;20101;-81
2023/08/01 03:01:07;;;;;;;2.05;1.48;;;;;;;16.52;89.22;96999.81;5012423;28;20033;-81
2023/08/01 03:03:32;;;;;;;1.60;1.40;;;;;;;16.56;90.09;96989.94;5030705;28;20485;-81
2023/08/01 03:05:58;;;;;;;1.83;1.20;;;;;;;16.58;89.41;96979.63;5011688;28;20064;-81
2023/08/01 03:08:24;;;;;;;1.40;1.17;;;;;;;16.58;89.77;96954.63;5009876;28;20029;-81
2023/08/01 03:10:50;;;;;;;1.35;1.25;;;;;;;16.43;90.22;96905.63;5028036;28;20080;-82
2023/08/01 03:13:15;;;;;;;2.25;1.38;;;;;;;16.54;89.55;96918.69;5013119;28;20511;-81
2023/08/01 03:15:41;;;;;;;5.15;1.52;;;;;;;16.50;89.97;96923.97;5026458;28;20069;-82
2023/08/01 03:18:06;;;;;;;1.60;1.30;;;;;;;16.28;90.81;96914.34;5028067;28;20029;-81
2023/08/01 03:20:32;;;;;;;1.67;1.58;;;;;;;16.43;90.37;96927.16;5028926;28;20037;-81
2023/08/01 03:22:57;;;;;;;4.07;1.45;;;;;;;16.21;91.58;96902.50;5028099;28;20183;-81
2023/08/01 03:25:24;;;;;;;3.13;1.30;;;;;;;16.34;90.28;96926.47;5025254;28;20030;-81
2023/08/01 03:27:50;;;;;;;1.55;1.10;;;;;;;16.61;89.59;96962.03;5013328;28;20059;-81
2023/08/01 03:30:15;;;;;;;2.90;2.38;;;;;;;16.57;89.69;96947.66;5029166;28;20083;-81
2023/08/01 03:32:41;;;;;;;4.85;1.00;;;;;;;16.46;89.77;96933.78;5033267;28;20022;-82
2023/08/01 03:35:06;;;;;;;3.53;1.55;;;;;;;16.40;90.08;96953.97;5011460;28;20213;-81
2023/08/01 03:37:32;;;;;;;1.85;0.80;;;;;;;16.61;88.69;96953.94;5028313;28;20624;-81
2023/08/01 03:39:57;;;;;;;3.53;1.00;;;;;;;16.71;88.18;96950.84;5030228;28;20424;-81
2023/08/01 03:42:23;;;;;;;0.75;0.70;;;;;;;16.57;88.86;96953.84;4992386;28;20052;-81
2023/08/01 03:44:48;;;;;;;0.70;0.70;;;;;;;16.71;88.53;96985.88;5024931;28;20029;-82
2023/08/01 03:47:13;;;;;;;1.20;1.00;;;;;;;16.57;89.08;97001.53;5029305;28;20037;-81
2023/08/01 03:49:39;;;;;;;0.47;0.40;;;;;;;16.54;89.25;96983.31;5027813;28;20032;-81
2023/08/01 03:52:05;;;;;;;1.65;0.50;;;;;;;16.38;89.76;96980.47;5028834;28;20056;-82
2023/08/01 03:54:31;;;;;;;3.42;0.70;;;;;;;16.53;89.62;96998.72;5026604;28;20033;-81
2023/08/01 03:56:56;;;;;;;1.38;0.73;;;;;;;16.56;89.56;97005.31;5026079;28;20030;-81
2023/08/01 03:59:22;;;;;;;2.58;0.75;;;;;;;16.57;89.10;96996.13;5025254;28;20352;-81
2023/08/01 04:01:47;;;;;;;0.40;0.40;;;;;;;16.53;89.41;96973.69;5026780;28;20069;-81
2023/08/01 04:04:13;;;;;;;1.90;0.50;;;;;;;16.38;90.02;96953.53;5030473;28;20385;-81
2023/08/01 04:06:38;;;;;;;1.27;0.47;;;;;;;16.26;91.08;96953.47;5025580;28;20496;-82
2023/08/01 04:09:03;;;;;;;0.75;0.40;;;;;;;16.39;90.05;96942.41;5023247;28;20042;-82
2023/08/01 04:11:29;;;;;;;2.70;0.40;;;;;;;16.57;88.75;96950.34;5027049;28;20393;-82
2023/08/01 04:13:55;;;;;;;0.60;0.30;;;;;;;16.58;89.50;96938.47;5012924;28;20441;-82
2023/08/01 04:16:21;;;;;;;0.98;0.47;;;;;;;16.42;89.69;96916.72;5029735;28;20116;-81
2023/08/01 04:18:46;;;;;;;0.45;0.30;;;;;;;16.70;88.67;96976.19;5010287;28;20132;-82
2023/08/01 04:21:14;;;;;;;1.17;0.55;;;;;;;16.52;89.72;96951.34;5025929;28;20038;-81
2023/08/01 04:23:39;;;;;;;1.17;0.57;;;;;;;16.68;88.51;97006.16;5003519;28;20124;-81
2023/08/01 04:26:06;;;;;;;2.67;0.50;;;;;;;16.67;88.75;97001.09;5023933;28;20115;-81
2023/08/01 04:28:32;;;;;;;2.17;0.60;;;;;;;16.58;89.34;96981.56;5027093;28;20033;-81
2023/08/01 04:30:57;;;;;;;1.30;0.35;;;;;;;16.45;89.28;96968.00;5028105;28;20437;-81
2023/08/01 04:33:22;;;;;;;1.35;0.68;;;;;;;16.42;89.17;96957.88;5010799;28;20060;-81
2023/08/01 04:35:49;;;;;;;0.93;0.47;;;;;;;16.47;89.73;96959.59;5028440;28;20037;-81
2023/08/01 04:38:15;;;;;;;2.63;0.50;;;;;;;16.40;89.73;96941.28;5026749;28;20052;-81
2023/08/01 04:40:40;;;;;;;2.15;0.47;;;;;;;16.59;89.18;96950.78;5030024;28;20045;-82
2023/08/01 04:43:05;;;;;;;1.73;0.60;;;;;;;16.55;89.36;96936.44;5026393;28;20068;-82
2023/08/01 04:45:31;;;;;;;2.17;0.60;;;;;;;16.52;89.99;96937.88;5030161;28;20063;-82
2023/08/01 04:47:56;;;;;;;1.85;0.32;;;;;;;16.59;89.50;96951.59;5030106;28;20060;-81
2023/08/01 04:50:21;;;;;;;1.65;0.50;;;;;;;16.65;89.12;96971.00;5028416;28;20088;-82
2023/08/01 04:52:47;;;;;;;0.57;0.50;;;;;;;16.49;89.84;96960.84;5028324;28;20126;-82
2023/08/01 04:55:12;;;;;;;1.02;0.20;;;;;;;16.62;89.25;96959.00;5025321;28;20037;-82
2023/08/01 04:57:38;;;;;;;0.93;0.40;;;;;;;16.62;89.62;96950.91;5024174;28;20041;-82
2023/08/01 05:00:04;;;;;;;0.45;0.43;;;;;;;16.59;90.09;96953.50;5013257;28;20025;-81
2023/08/01 05:02:29;;;;;;;0.50;0.38;;;;;;;16.61;89.43;96946.66;5028060;28;20033;-81
2023/08/01 05:04:55;;;;;;;0.80;0.52;;;;;;;16.48;89.97;96928.88;4994607;28;20026;-82
2023/08/01 05:07:20;;;;;;;0.38;0.30;;;;;;;16.59;89.89;96924.66;5010000;28;20095;-81
2023/08/01 05:09:46;;;;;;;0.68;0.50;;;;;;;16.53;89.76;96936.78;5021123;28;20103;-80
2023/08/01 05:12:11;;;;;;;0.65;0.40;;;;;;;16.63;89.42;96941.72;5029841;28;20045;-80
2023/08/01 05:14:36;;;;;;;0.80;0.45;;;;;;;16.53;90.37;96936.78;5014989;28;20061;-80
2023/08/01 05:17:02;;;;;;;1.50;0.70;;;;;;;16.66;89.73;96934.88;5013603;28;20393;-80
2023/08/01 05:19:27;;;;;;;0.80;0.60;;;;;;;16.63;89.39;96940.94;5030154;28;20372;-81
2023/08/01 05:21:52;;;;;;;0.30;0.30;;;;;;;16.60;89.54;96933.53;5027691;28;20048;-81
2023/08/01 05:24:18;;;;;;;0.95;0.30;;;;;;;16.54;90.63;96951.00;5028036;28;20030;-81
2023/08/01 05:26:43;;;;;;;0.43;0.43;;;;;;;16.61;89.39;96952.03;5031568;28;20029;-81
2023/08/01 05:29:09;;;;;;;1.27;0.40;;;;;;;16.56;89.37;96957.63;5029911;28;20033;-81
2023/08/01 05:31:34;;;;;;;1.13;0.98;;;;;;;16.33;92.64;96951.81;5032477;28;20049;-83
2023/08/01 05:33:59;;;;;;;0.52;0.38;;;;;;;16.45;90.37;96951.84;5032961;28;20466;-82
2023/08/01 05:36:25;;;;;;;4.30;0.77;;;;;;;16.15;92.85;96923.47;5026949;28;20053;-82
2023/08/01 05:38:50;;;;;;;6.53;0.95;;;;;;;16.19;94.82;96948.63;5046141;28;20030;-81
2023/08/01 05:41:15;;;;;;;3.22;1.17;;;;;;;16.23;92.64;96949.53;4996377;28;20044;-82
2023/08/01 05:43:41;;;;;;;0.52;0.50;;;;;;;16.58;89.74;96955.38;5031046;28;20029;-81
2023/08/01 05:46:06;;;;;;;2.50;1.13;;;;;;;16.68;88.59;96954.97;5027960;28;20048;-84
2023/08/01 05:48:32;;;;;;;2.50;0.60;;;;;;;16.67;88.84;96964.16;5027328;28;20037;-82
2023/08/01 05:50:58;;;;;;;3.25;0.77;;;;;;;16.74;88.19;96958.25;5027280;28;20438;-81
2023/08/01 05:53:23;;;;;;;1.13;0.70;;;;;;;16.67;90.49;96966.88;4995091;28;20041;-81
2023/08/01 05:55:49;;;;;;;1.27;0.45;;;;;;;16.32;91.60;96960.22;5032317;28;20036;-81
2023/08/01 05:58:15;;;;;;;0.63;0.50;;;;;;;16.36;91.50;96970.00;5027675;28;20484;-81
2023/08/01 06:00:41;;;;;;;0.60;0.30;;;;;;;16.53;90.42;96977.16;5029509;28;20485;-81
2023/08/01 06:03:06;;;;;;;1.42;0.50;;;;;;;16.49;90.79;96986.97;5045772;28;20029;-81
2023/08/01 06:05:32;;;;;;;1.45;0.38;;;;;;;16.38;90.33;96967.75;5029149;28;20041;-81
2023/08/01 06:07:57;;;;;;;2.67;0.50;;;;;;;16.52;90.41;96989.03;5020652;28;20049;-81
2023/08/01 06:10:22;;;;;;;1.17;0.43;;;;;;;16.55;90.50;96998.38;5021062;28;20030;-81
2023/08/01 06:12:48;;;;;;;0.95;0.30;;;;;;;16.48;90.27;96988.09;5030597;28;20025;-81
2023/08/01 06:15:13;;;;;;;1.52;0.65;;;;;;;16.48;90.22;96991.59;5023257;28;20040;-81
2023/08/01 06:17:38;;;;;;;0.68;0.40;;;;;;;16.64;88.69;96982.91;5025297;28;20028;-81
2023/08/01 06:20:04;;;;;;;0.43;0.13;;;;;;;16.62;88.95;96985.16;5014167;28;20108;-81
2023/08/01 06:22:30;;;;;;;1.95;0.40;;;;;;;16.67;89.38;97015.34;5030068;28;20040;-81
2023/08/01 06:24:56;;;;;;;0.43;0.30;;;;;;;16.63;89.67;97000.19;5028936;28;20030;-81
2023/08/01 06:27:21;;;;;;;0.20;0.20;;;;;;;16.47;89.80;96981.13;5029995;28;20033;-81
2023/08/01 06:29:47;;;;;;;5.25;0.73;;;;;;;16.58;89.66;97003.13;5030292;28;20110;-81
2023/08/01 06:32:12;;;;;;;0.82;0.40;;;;;;;16.60;89.08;97017.03;5029380;28;20056;-81
2023/08/01 06:34:37;;;;;;;0.32;0.32;;;;;;;16.44;90.43;97003.34;4997550;28;20389;-82
2023/08/01 06:37:03;;;;;;;0.65;0.47;;;;;;;16.46;90.04;97022.66;5011862;28;20037;-82
2023/08/01 06:39:29;;;;;;;0.38;0.30;;;;;;;16.60;89.13;97015.09;5030518;28;20804;-82
2023/08/01 06:41:55;;;;;;;1.83;0.40;;;;;;;16.48;89.62;97021.22;5013428;28;20047;-82
2023/08/01 06:44:20;;;;;;;0.47;0.30;;;;;;;16.67;89.67;97033.41;5030206;28;20108;-82
2023/08/01 06:46:46;;;;;;;0.32;0.32;;;;;;;16.60;90.02;97033.19;5042380;28;20037;-82
2023/08/01 06:49:11;;;;;;;1.15;0.85;;;;;;;16.30;90.41;97017.09;5011947;28;20025;-82
2023/08/01 06:51:37;;;;;;;0.70;0.70;;;;;;;16.55;89.52;97018.03;5008384;28;20039;-81
2023/08/01 06:54:02;;;;;;;4.13;0.95;;;;;;;16.54;90.00;97037.97;5022180;28;20077;-81
2023/08/01 06:56:27;;;;;;;0.80;0.80;;;;;;;16.49;89.67;97030.88;5028934;28;20397;-81
2023/08/01 06:58:53;;;;;;;1.30;1.20;;;;;;;16.38;90.62;97042.38;5010438;28;20025;-80
2023/08/01 07:01:19;;;;;;;1.25;1.00;;;;;;;16.46;90.23;97045.00;5026040;28;20076;-82
2023/08/01 07:03:45;;;;;;;1.38;1.27;;;;;;;16.32;90.60;97044.47;5012356;28;20037;-81
2023/08/01 07:06:10;;;;;;;1.13;1.08;;;;;;;16.43;90.41;97052.94;5044040;28;20056;-82
2023/08/01 07:08:36;;;;;;;1.48;1.27;;;;;;;16.52;90.36;97064.47;5029747;28;20140;-81
2023/08/01 07:11:02;;;;;;;1.98;1.77;;;;;;;16.44;90.31;97060.72;5028989;28;20034;-81
2023/08/01 07:13:27;;;;;;;2.58;2.00;;;;;;;16.44;89.74;97060.72;5028223;28;20082;-82
2023/08/01 07:15:53;;;;;;;3.45;1.70;;;;;;;16.56;89.28;97054.59;5028427;28;20569;-82
2023/08/01 07:18:19;;;;;;;1.67;1.58;;;;;;;16.55;89.07;97052.25;5028154;28;20033;-82
2023/08/01 07:20:44;;;;;;;3.65;2.35;;;;;;;16.62;89.39;97060.59;5014804;28;20029;-82
2023/08/01 07:23:09;;;;;;;5.07;2.67;;;;;;;16.56;88.91;97043.81;5028222;28;20033;-82
2023/08/01 07:25:35;;;;;;;2.42;2.33;;;;;;;16.53;89.61;97049.88;5030031;28;20044;-82
2023/08/01 07:28:01;;;;;;;3.60;3.17;;;;;;;16.40;90.56;97045.53;5012513;28;20493;-82
2023/08/01 07:30:27;;;;;;;4.10;2.92;;;;;;;16.59;89.40;97043.19;5025344;28;20043;-82
2023/08/01 07:32:52;;;;;;;5.07;3.40;;;;;;;16.59;90.19;97050.47;5029036;28;20045;-82
2023/08/01 07:35:17;;;;;;;7.03;5.03;;;;;;;16.57;89.83;97050.00;5045385;28;20053;-82
2023/08/01 07:37:43;;;;;;;5.53;5.00;;;;;;;16.67;89.87;97054.97;5028343;28;20029;-81
2023/08/01 07:40:09;;;;;;;6.45;5.07;;;;;;;16.68;89.32;97073.53;5010116;28;20128;-82
2023/08/01 07:42:34;;;;;;;6.25;4.35;;;;;;;16.79;88.97;97074.69;5026903;28;20033;-82
2023/08/01 07:45:00;;;;;;;7.20;6.50;;;;;;;16.63;90.09;97086.38;5038043;28;20128;-82
2023/08/01 07:47:25;;;;;;;7.07;4.93;;;;;;;16.85;89.06;97091.44;5029522;28;20508;-82
2023/08/01 07:49:51;;;;;;;6.07;5.47;;;;;;;16.75;89.00;97083.75;5028530;28;20029;-82
2023/08/01 07:52:17;;;;;;;7.45;6.20;;;;;;;16.72;88.93;97100.56;5028704;28;20401;-83
2023/08/01 07:54:42;;;;;;;5.95;5.35;;;;;;;16.76;89.26;97104.19;5012593;28;20040;-82
2023/08/01 07:57:07;;;;;;;7.22;5.88;;;;;;;16.79;88.38;97101.63;5028624;28;20522;-83
2023/08/01 07:59:33;;;;;;;8.13;5.20;;;;;;;16.83;87.93;97101.75;5028689;28;20052;-83
2023/08/01 08:01:58;;;;;;;7.13;5.63;;;;;;;16.97;87.63;97107.66;5038369;28;20405;-82
2023/08/01 08:04:24;;;;;;;6.95;5.97;;;;;;;16.63;88.11;97092.56;5025661;28;20397;-82
2023/08/01 08:06:49;;;;;;;7.50;5.68;;;;;;;16.88;87.77;97109.63;5042646;28;20452;-83
2023/08/01 08:09:14;;;;;;;10.15;6.50;;;;;;;16.90;87.92;97115.47;5029828;28;20025;-82
2023/08/01 08:11:41;;;;;;;11.05;5.70;;;;;;;16.95;87.28;97115.28;5027796;28;20041;-82
2023/08/01 08:14:07;;;;;;;11.45;6.88;;;;;;;16.93;87.57;97114.81;5010864;28;20045;-82
2023/08/01 08:16:32;;;;;;;8.15;6.18;;;;;;;16.85;87.55;97110.28;5026332;28;20037;-82
2023/08/01 08:18:57;;;;;;;8.73;6.80;;;;;;;16.91;87.25;97108.97;5025121;28;20037;-82
2023/08/01 08:21:23;;;;;;;11.20;7.82;;;;;;;16.93;87.53;97117.50;5025175;28;20033;-82
2023/08/01 08:23:48;;;;;;;21.35;6.30;;;;;;;16.90;86.37;97104.72;5025756;28;20127;-83
2023/08/01 08:26:13;;;;;;;8.32;6.13;;;;;;;16.74;86.62;97112.59;5028522;28;20052;-82
2023/08/01 08:28:40;;;;;;;11.73;6.90;;;;;;;16.92;87.45;97110.53;5008343;28;20048;-82
2023/08/01 08:31:05;;;;;;;11.00;7.35;;;;;;;16.99;86.13;97110.81;5027426;28;20044;-82
2023/08/01 08:33:30;;;;;;;7.18;6.47;;;;;;;16.93;86.66;97112.91;5012193;28;20037;-82
2023/08/01 08:35:56;;;;;;;8.63;6.28;;;;;;;17.08;85.81;97116.91;5029224;28;20069;-82
2023/08/01 08:38:21;;;;;;;9.95;7.40;;;;;;;16.96;86.32;97123.03;5027238;28;20083;-82
2023/08/01 08:40:50;;;;;;;9.48;7.15;;;;;;;17.03;86.98;97119.81;5027853;28;20018;-81
2023/08/01 08:43:17;;;;;;;10.80;7.47;;;;;;;17.01;86.51;97120.16;5026149;28;20511;-82
2023/08/01 08:45:44;;;;;;;10.10;6.53;;;;;;;17.11;86.09;97119.72;4995102;28;20424;-82
2023/08/01 08:48:17;;;;;;;11.48;8.85;;;;;;;16.86;86.78;97120.72;5024149;28;20109;-81
2023/08/01 08:50:43;;;;;;;9.10;6.85;;;;;;;17.21;85.91;97126.59;5026731;28;20099;-82
2023/08/01 08:53:12;;;;;;;8.90;7.43;;;;;;;17.28;86.01;97137.63;5029839;28;20033;-82
2023/08/01 08:55:39;;;;;;;7.70;6.80;;;;;;;17.35;85.05;97145.97;5028372;28;20501;-81
2023/08/01 08:58:05;;;;;;;9.00;8.10;;;;;;;17.42;84.96;97126.53;5026475;28;20431;-82
2023/08/01 09:00:31;;;;;;;11.57;8.25;;;;;;;17.52;84.91;97135.00;5027555;28;20029;-82
2023/08/01 09:02:57;;;;;;;11.65;7.38;;;;;;;17.60;83.89;97131.44;5028050;28;20037;-82
2023/08/01 09:05:27;;;;;;;13.90;9.63;;;;;;;17.67;84.36;97149.78;5029248;28;20529;-82
2023/08/01 09:07:56;;;;;;;8.93;7.70;;;;;;;17.80;84.16;97141.34;5028978;28;20033;-81
2023/08/01 09:10:22;;;;;;;9.70;8.27;;;;;;;17.88;83.16;97148.56;5010738;28;20037;-82
2023/08/01 09:12:47;;;;;;;11.88;8.85;;;;;;;17.81;83.46;97150.22;5009277;28;20539;-83
2023/08/01 09:15:13;;;;;;;12.00;8.85;;;;;;;17.86;82.81;97150.03;5028968;28;20033;-82
2023/08/01 09:17:53;;;;;;;12.82;8.32;;;;;;;17.86;83.00;97147.31;5025290;28;20724;-82
2023/08/01 09:20:18;;;;;;;13.05;8.50;;;;;;;17.88;82.88;97161.25;5011601;28;20025;-81
2023/08/01 09:22:45;;;;;;;12.82;9.60;;;;;;;17.92;82.58;97151.38;5025899;28;20033;-82
2023/08/01 09:25:11;;;;;;;16.77;10.25;;;;;;;17.89;82.27;97155.50;5027175;28;20038;-82
2023/08/01 09:27:37;;;;;;;11.07;9.13;;;;;;;17.90;82.22;97140.13;5010622;28;20501;-82
2023/08/01 09:30:11;;;;;;;12.95;9.50;;;;;;;18.19;81.58;97153.41;5028394;28;20021;-82
2023/08/01 09:32:37;;;;;;;13.02;9.57;;;;;;;18.07;82.12;97131.78;5025935;28;20029;-82
2023/08/01 09:35:03;;;;;;;13.80;10.18;;;;;;;18.22;81.51;97146.50;5028425;28;20052;-81
2023/08/01 09:37:42;;;;;;;11.07;9.88;;;;;;;18.27;80.92;97143.59;5025410;28;20029;-82
2023/08/01 09:40:11;;;;;;;14.48;11.63;;;;;;;18.28;81.16;97151.34;5027417;28;20469;-81
2023/08/01 09:42:44;;;;;;;15.50;10.23;;;;;;;18.35;81.13;97148.06;5025718;28;20052;-82
2023/08/01 09:45:14;;;;;;;13.10;10.77;;;;;;;18.37;80.53;97141.19;5027392;28;20025;-81
2023/08/01 09:47:41;;;;;;;14.30;10.82;;;;;;;18.39;80.18;97140.88;5024713;28;20041;-82
2023/08/01 09:50:07;;;;;;;14.85;11.27;;;;;;;18.62;79.25;97148.19;5027670;28;20033;-82
2023/08/01 09:52:33;;;;;;;11.88;10.65;;;;;;;18.68;79.28;97152.22;5028258;28;20040;-82
2023/08/01 09:54:58;;;;;;;16.02;11.13;;;;;;;18.70;79.32;97141.06;5028653;28;20025;-82
2023/08/01 09:57:28;;;;;;;15.23;10.43;;;;;;;18.78;78.66;97150.16;5030528;28;20029;-82
2023/08/01 09:59:56;;;;;;;11.30;8.95;;;;;;;18.78;78.55;97150.16;5044925;28;20040;-82
2023/08/01 10:02:24;;;;;;;15.27;9.02;;;;;;;18.82;77.61;97145.66;5027194;28;20037;-82
2023/08/01 10:04:52;;;;;;;17.45;9.90;;;;;;;18.83;77.86;97155.34;4995320;28;20030;-82
2023/08/01 10:07:23;;;;;;;11.55;10.10;;;;;;;18.64;78.03;97135.13;5047286;28;20086;-82
2023/08/01 10:09:50;;;;;;;11.18;10.00;;;;;;;18.76;77.93;97145.13;5022516;28;20503;-82
2023/08/01 10:12:18;;;;;;;12.88;9.50;;;;;;;18.77;78.31;97156.69;5025781;28;20075;-83
2023/08/01 10:14:43;;;;;;;12.68;9.48;;;;;;;18.80;78.08;97156.81;5031963;28;20074;-82
2023/08/01 10:17:10;;;;;;;14.20;8.95;;;;;;;18.78;77.16;97152.88;5014797;28;20029;-82
2023/08/01 10:19:37;;;;;;;11.50;8.70;;;;;;;18.83;77.64;97136.41;5031920;28;20021;-82
2023/08/01 10:22:05;;;;;;;18.27;9.57;;;;;;;19.07;76.55;97139.00;5030901;28;20041;-81
2023/08/01 10:24:32;;;;;;;14.40;10.30;;;;;;;19.35;75.99;97140.59;5030727;28;20052;-81
2023/08/01 10:27:08;;;;;;;11.45;9.13;;;;;;;19.49;75.49;97150.22;5030355;28;20033;-82
2023/08/01 10:29:36;;;;;;;14.20;8.70;;;;;;;19.59;75.02;97155.13;5032630;28;20021;-82
2023/08/01 10:32:02;;;;;;;11.07;8.15;;;;;;;19.55;75.47;97151.56;5029506;28;20444;-82
2023/08/01 10:34:27;;;;;;;13.52;9.70;;;;;;;19.63;74.54;97147.88;5030038;28;20037;-82
2023/08/01 10:36:57;;;;;;;11.35;8.70;;;;;;;19.85;74.24;97153.50;4996061;28;20044;-82
2023/08/01 10:39:25;;;;;;;13.75;9.35;;;;;;;20.01;73.47;97148.84;5029673;28;20366;-81
2023/08/01 10:42:02;;;;;;;11.15;8.75;;;;;;;19.97;73.30;97152.59;5045133;28;20029;-81
2023/08/01 10:44:28;;;;;;;13.00;8.63;;;;;;;19.90;74.19;97164.03;5029012;28;20033;-82
2023/08/01 10:47:00;;;;;;;13.15;9.30;;;;;;;19.84;74.63;97157.31;5013097;28;20030;-82
2023/08/01 10:49:43;;;;;;;12.25;8.70;;;;;;;19.70;74.88;97167.78;5025782;28;20029;-82
2023/08/01 10:52:20;;;;;;;22.40;10.40;;;;;;;19.57;74.45;97154.69;5024258;28;20712;-82
2023/08/01 10:54:46;;;;;;;9.88;8.10;;;;;;;19.79;73.43;97160.28;5024927;28;20534;-82
2023/08/01 10:57:18;;;;;;;11.65;9.50;;;;;;;19.84;73.97;97162.75;5031962;28;20056;-82
2023/08/01 10:59:44;;;;;;;11.77;8.55;;;;;;;19.86;73.99;97148.84;5013624;28;20057;-82
2023/08/01 11:02:09;;;;;;;12.43;9.35;;;;;;;20.17;72.92;97160.47;5030299;28;20030;-82
2023/08/01 11:04:35;;;;;;;9.18;7.63;;;;;;;20.20;72.06;97164.41;5026803;28;20021;-82
2023/08/01 11:07:01;;;;;;;14.88;8.70;;;;;;;20.31;72.98;97162.75;5042353;28;20041;-82
2023/08/01 11:09:27;;;;;;;11.93;7.97;;;;;;;20.24;73.03;97168.00;5029925;28;20432;-83
2023/08/01 11:11:55;;;;;;;11.93;8.77;;;;;;;20.27;72.51;97159.16;5012917;28;20686;-82
2023/08/01 11:14:22;;;;;;;11.32;6.93;;;;;;;20.32;70.11;97141.84;5029524;28;20032;-82
2023/08/01 11:16:49;;;;;;;9.95;7.35;;;;;;;20.65;69.93;97153.03;5043811;28;20503;-82
2023/08/01 11:19:25;;;;;;;9.95;7.35;;;;;;;20.89;68.91;97155.50;5026246;28;20422;-81
2023/08/01 11:21:56;;;;;;;19.85;6.95;;;;;;;21.01;68.66;97160.78;5025323;28;20030;-82
2023/08/01 11:24:21;;;;;;;12.20;7.18;;;;;;;20.82;69.00;97169.69;5030267;28;20029;-82
2023/08/01 11:26:49;;;;;;;12.20;6.50;;;;;;;20.50;70.40;97160.09;5031595;28;20393;-82